createdAt,value
2022-11-24T00:01:15.645Z,16.50
2022-11-24T00:03:44.518Z,16.88
2022-11-24T00:06:15.992Z,17.30
2022-11-24T00:08:45.657Z,17.90
2022-11-24T00:11:15.349Z,17.83
2022-11-24T00:13:42.602Z,17.15
2022-11-24T00:16:12.577Z,17.27
2022-11-24T00:18:40.865Z,17.75
2022-11-24T00:21:08.029Z,18.15
2022-11-24T00:23:35.753Z,18.33
2022-11-24T00:26:19.054Z,17.48
2022-11-24T00:28:47.956Z,17.90
2022-11-24T00:31:33.062Z,17.20
2022-11-24T00:34:02.395Z,17.33
2022-11-24T00:36:32.737Z,18.20
2022-11-24T00:39:01.989Z,18.45
2022-11-24T00:41:30.034Z,17.40
2022-11-24T00:43:57.246Z,19.02
2022-11-24T00:46:25.304Z,18.27
2022-11-24T00:48:52.413Z,17.05
2022-11-24T00:51:21.614Z,18.27
2022-11-24T00:53:48.563Z,17.70
2022-11-24T00:56:15.554Z,17.27
2022-11-24T00:58:42.306Z,16.63
2022-11-24T01:01:15.825Z,18.63
2022-11-24T01:03:42.733Z,18.17
2022-11-24T01:06:14.058Z,17.77
2022-11-24T01:08:41.543Z,18.73
2022-11-24T01:11:17.864Z,18.10
2022-11-24T01:13:46.300Z,18.23
2022-11-24T01:16:18.817Z,17.75
2022-11-24T01:18:46.339Z,16.83
2022-11-24T01:21:13.576Z,18.27
2022-11-24T01:23:41.003Z,18.65
2022-11-24T01:26:09.806Z,19.00
2022-11-24T01:28:40.570Z,18.80
2022-11-24T01:31:11.304Z,17.85
2022-11-24T01:33:38.882Z,17.27
2022-11-24T01:36:06.727Z,17.33
2022-11-24T01:38:34.043Z,19.02
2022-11-24T01:41:06.072Z,18.30
2022-11-24T01:43:34.705Z,17.63
2022-11-24T01:46:30.924Z,19.63
2022-11-24T01:49:20.137Z,17.98
2022-11-24T01:51:59.783Z,16.27
2022-11-24T01:54:33.546Z,17.73
2022-11-24T01:57:23.569Z,17.27
2022-11-24T01:59:55.094Z,17.23
2022-11-24T02:02:22.453Z,17.80
2022-11-24T02:04:51.032Z,17.85
2022-11-24T02:07:18.655Z,16.42
2022-11-24T02:09:51.574Z,17.40
2022-11-24T02:12:18.443Z,16.92
2022-11-24T02:14:46.088Z,18.30
2022-11-24T02:17:12.954Z,18.13
2022-11-24T02:19:39.631Z,18.75
2022-11-24T02:22:28.002Z,17.38
2022-11-24T02:25:03.620Z,17.30
2022-11-24T02:27:30.842Z,18.08
2022-11-24T02:29:57.654Z,18.33
2022-11-24T02:32:24.534Z,17.85
2022-11-24T02:35:03.318Z,17.63
2022-11-24T02:37:30.215Z,16.90
2022-11-24T02:39:56.865Z,18.10
2022-11-24T02:42:25.261Z,17.20
2022-11-24T02:44:57.189Z,16.40
2022-11-24T02:49:50.837Z,15.45
2022-11-24T02:52:17.859Z,15.50
2022-11-24T02:54:44.640Z,17.25
2022-11-24T02:57:11.720Z,15.90
2022-11-24T02:59:38.840Z,16.65
2022-11-24T03:02:06.531Z,17.25
2022-11-24T03:04:33.563Z,16.27
2022-11-24T03:07:00.605Z,15.75
2022-11-24T03:09:27.415Z,16.15
2022-11-24T03:11:54.433Z,15.63
2022-11-24T03:14:21.128Z,15.57
2022-11-24T03:16:47.781Z,15.25
2022-11-24T03:19:14.496Z,15.02
2022-11-24T03:21:41.249Z,14.88
2022-11-24T03:24:07.979Z,16.02
2022-11-24T03:26:35.205Z,15.77
2022-11-24T03:29:01.999Z,15.18
2022-11-24T03:31:28.841Z,14.95
2022-11-24T03:33:55.770Z,14.15
2022-11-24T03:36:22.630Z,15.27
2022-11-24T03:38:50.079Z,16.15
2022-11-24T03:41:16.835Z,16.48
2022-11-24T03:43:44.362Z,15.88
2022-11-24T03:46:12.181Z,15.10
2022-11-24T03:48:39.279Z,15.50
2022-11-24T03:51:06.439Z,16.90
2022-11-24T03:53:34.335Z,15.48
2022-11-24T03:56:02.036Z,15.88
2022-11-24T03:58:29.533Z,16.65
2022-11-24T04:00:57.275Z,15.40
2022-11-24T04:03:24.137Z,15.15
2022-11-24T04:05:52.157Z,15.20
2022-11-24T04:08:19.321Z,15.95
2022-11-24T04:10:50.970Z,15.77
2022-11-24T04:13:19.672Z,15.07
2022-11-24T04:15:46.451Z,15.48
2022-11-24T04:18:13.777Z,16.23
2022-11-24T04:20:41.552Z,15.35
2022-11-24T04:23:10.049Z,15.70
2022-11-24T04:25:37.832Z,15.20
2022-11-24T04:28:04.694Z,15.70
2022-11-24T04:30:31.358Z,15.07
2022-11-24T04:32:58.193Z,16.25
2022-11-24T04:35:25.046Z,15.48
2022-11-24T04:37:51.793Z,16.23
2022-11-24T04:40:19.109Z,15.55
2022-11-24T04:42:56.142Z,15.50
2022-11-24T04:45:23.896Z,16.40
2022-11-24T04:47:51.009Z,17.08
2022-11-24T04:50:18.328Z,16.55
2022-11-24T04:52:45.145Z,15.88
2022-11-24T04:55:12.389Z,16.95
2022-11-24T04:57:39.379Z,17.33
2022-11-24T05:00:07.105Z,17.10
2022-11-24T05:02:33.863Z,16.48
2022-11-24T05:05:00.652Z,16.13
2022-11-24T05:07:27.697Z,16.70
2022-11-24T05:10:13.031Z,16.35
2022-11-24T05:12:39.916Z,17.20
2022-11-24T05:15:07.469Z,16.35
2022-11-24T05:17:36.576Z,16.85
2022-11-24T05:20:05.683Z,18.38
2022-11-24T05:23:01.078Z,17.88
2022-11-24T05:25:27.736Z,16.98
2022-11-24T05:27:54.430Z,17.20
2022-11-24T05:30:21.278Z,17.27
2022-11-24T05:32:47.989Z,17.95
2022-11-24T05:35:15.005Z,17.45
2022-11-24T05:37:41.636Z,17.15
2022-11-24T05:40:08.643Z,17.80
2022-11-24T05:42:46.607Z,18.02
2022-11-24T05:45:20.195Z,18.25
2022-11-24T05:47:47.856Z,18.00
2022-11-24T05:50:16.604Z,18.48
2022-11-24T05:52:43.452Z,17.75
2022-11-24T05:55:11.235Z,17.65
2022-11-24T05:57:37.972Z,16.63
2022-11-24T06:00:07.188Z,18.15
2022-11-24T06:02:34.263Z,17.15
2022-11-24T06:05:01.158Z,18.73
2022-11-24T06:07:27.912Z,18.73
2022-11-24T06:09:54.622Z,17.65
2022-11-24T06:12:21.383Z,18.85
2022-11-24T06:14:48.276Z,18.35
2022-11-24T06:17:15.019Z,18.55
2022-11-24T06:19:42.357Z,17.77
2022-11-24T06:22:09.229Z,17.23
2022-11-24T06:24:36.307Z,17.25
2022-11-24T06:27:03.343Z,19.17
2022-11-24T06:29:30.329Z,18.85
2022-11-24T06:31:57.247Z,18.33
2022-11-24T06:34:24.065Z,18.80
2022-11-24T06:36:50.810Z,18.05
2022-11-24T06:39:17.759Z,19.92
2022-11-24T06:41:44.495Z,20.25
2022-11-24T06:44:11.282Z,18.83
2022-11-24T06:46:38.093Z,19.50
2022-11-24T06:49:04.975Z,18.55
2022-11-24T06:51:31.704Z,17.90
2022-11-24T06:53:58.417Z,20.23
2022-11-24T06:56:25.616Z,19.15
2022-11-24T06:58:53.285Z,19.15
2022-11-24T07:01:23.372Z,19.92
2022-11-24T07:03:51.332Z,19.52
2022-11-24T07:06:18.723Z,19.23
2022-11-24T07:08:46.227Z,18.90
2022-11-24T07:11:15.843Z,19.75
2022-11-24T07:13:43.491Z,18.40
2022-11-24T07:16:19.486Z,18.83
2022-11-24T07:18:47.630Z,19.65
2022-11-24T07:21:15.157Z,17.20
2022-11-24T07:23:42.435Z,19.73
2022-11-24T07:26:10.950Z,17.42
2022-11-24T07:28:38.039Z,19.13
2022-11-24T07:31:09.773Z,17.52
2022-11-24T07:33:36.951Z,19.88
2022-11-24T07:36:05.259Z,18.70
2022-11-24T07:38:32.740Z,19.05
2022-11-24T07:41:04.617Z,19.85
2022-11-24T07:43:32.450Z,19.20
2022-11-24T07:45:59.718Z,18.90
2022-11-24T07:48:27.198Z,18.23
2022-11-24T07:50:56.148Z,19.27
2022-11-24T07:53:23.236Z,18.25
2022-11-24T07:55:55.610Z,17.65
2022-11-24T07:58:22.850Z,17.50
2022-11-24T08:00:49.659Z,17.92
2022-11-24T08:03:16.474Z,16.48
2022-11-24T08:06:01.013Z,17.73
2022-11-24T08:08:34.512Z,17.15
2022-11-24T08:11:10.737Z,17.35
2022-11-24T08:13:38.189Z,15.98
2022-11-24T08:16:19.240Z,18.85
2022-11-24T08:18:51.263Z,16.88
2022-11-24T08:23:45.054Z,16.17
2022-11-24T08:26:16.693Z,16.52
2022-11-24T08:28:44.641Z,17.33
2022-11-24T08:31:18.831Z,17.40
2022-11-24T08:33:46.089Z,16.83
2022-11-24T08:36:15.956Z,16.42
2022-11-24T08:38:44.760Z,16.23
2022-11-24T08:41:16.695Z,16.10
2022-11-24T08:43:43.629Z,16.95
2022-11-24T08:46:13.721Z,15.60
2022-11-24T08:48:41.696Z,16.85
2022-11-24T08:51:14.557Z,16.67
2022-11-24T08:53:42.168Z,16.05
2022-11-24T08:56:09.987Z,15.93
2022-11-24T08:58:37.954Z,15.73
2022-11-24T09:01:06.023Z,15.80
2022-11-24T09:03:33.494Z,14.63
2022-11-24T09:06:01.024Z,15.20
2022-11-24T09:08:30.233Z,15.68
2022-11-24T09:11:05.531Z,15.85
2022-11-24T09:13:32.754Z,15.02
2022-11-24T09:16:08.005Z,16.05
2022-11-24T09:18:34.941Z,14.57
2022-11-24T09:21:10.629Z,16.17
2022-11-24T09:23:38.169Z,15.15
2022-11-24T09:26:09.868Z,15.13
2022-11-24T09:28:36.863Z,15.20
2022-11-24T09:31:06.015Z,15.05
2022-11-24T09:33:33.385Z,15.73
2022-11-24T09:36:00.554Z,14.50
2022-11-24T09:38:27.907Z,14.57
2022-11-24T09:40:58.323Z,15.52
2022-11-24T09:43:49.688Z,14.23
2022-11-24T09:46:25.743Z,15.68
2022-11-24T09:48:56.791Z,14.63
2022-11-24T09:51:29.293Z,14.45
2022-11-24T09:54:09.503Z,14.32
2022-11-24T09:56:40.636Z,14.50
2022-11-24T09:59:18.791Z,14.20
2022-11-24T10:01:47.808Z,14.65
2022-11-24T10:04:17.631Z,14.98
2022-11-24T10:06:53.815Z,14.23
2022-11-24T10:09:36.022Z,15.40
2022-11-24T10:12:21.841Z,15.10
2022-11-24T10:15:16.995Z,14.30
2022-11-24T10:18:21.627Z,14.48
2022-11-24T10:20:55.698Z,14.95
2022-11-24T10:23:54.683Z,13.70
2022-11-24T10:26:34.881Z,15.38
2022-11-24T10:29:08.590Z,15.27
2022-11-24T10:31:42.495Z,14.80
2022-11-24T10:34:31.973Z,15.43
2022-11-24T10:37:13.907Z,14.00
2022-11-24T10:39:54.787Z,15.73
2022-11-24T10:45:01.697Z,13.82
2022-11-24T10:47:28.893Z,15.20
2022-11-24T10:50:02.058Z,15.38
2022-11-24T10:52:32.424Z,15.45
2022-11-24T10:55:01.031Z,15.40
2022-11-24T10:57:39.507Z,14.32
2022-11-24T11:00:18.684Z,15.13
2022-11-24T11:02:47.801Z,16.08
2022-11-24T11:05:41.803Z,17.00
2022-11-24T11:08:16.499Z,15.13
2022-11-24T11:10:45.333Z,15.90
2022-11-24T11:13:23.956Z,14.77
2022-11-24T11:15:51.384Z,14.95
2022-11-24T11:18:19.609Z,15.10
2022-11-24T11:20:54.886Z,16.85
2022-11-24T11:23:31.239Z,15.07
2022-11-24T11:26:24.003Z,15.27
2022-11-24T11:37:32.944Z,14.75
2022-11-24T11:40:00.320Z,15.25
2022-11-24T11:43:00.855Z,14.85
2022-11-24T11:45:35.530Z,16.25
2022-11-24T11:48:02.939Z,15.18
2022-11-24T11:50:30.188Z,16.13
2022-11-24T11:53:17.232Z,16.58
2022-11-24T11:55:59.054Z,15.90
2022-11-24T11:59:01.049Z,15.55
2022-11-24T12:01:49.498Z,16.50
2022-11-24T12:04:34.950Z,15.75
2022-11-24T12:11:28.855Z,15.77
2022-11-24T12:14:23.694Z,15.10
2022-11-24T12:17:07.226Z,14.70
2022-11-24T12:19:45.734Z,15.80
2022-11-24T12:22:40.069Z,14.98
2022-11-24T12:25:24.986Z,15.15
2022-11-24T12:28:24.364Z,15.25
2022-11-24T12:31:13.347Z,15.85
2022-11-24T12:34:02.041Z,14.77
2022-11-24T12:36:50.329Z,15.13
2022-11-24T12:39:23.021Z,14.73
2022-11-24T12:42:05.433Z,15.07
2022-11-24T12:45:01.888Z,15.45
2022-11-24T12:47:49.963Z,16.10
2022-11-24T12:50:20.170Z,15.00
2022-11-24T12:52:57.131Z,14.65
2022-11-24T12:55:27.718Z,14.77
2022-11-24T12:58:14.809Z,13.45
2022-11-24T13:00:55.553Z,15.90
2022-11-24T13:03:28.210Z,14.35
2022-11-24T13:06:08.319Z,14.18
2022-11-24T13:08:36.773Z,15.13
2022-11-24T13:11:34.722Z,15.15
2022-11-24T13:14:07.318Z,14.63
2022-11-24T13:16:37.142Z,16.00
2022-11-24T13:19:22.683Z,15.18
2022-11-24T13:22:03.449Z,15.32
2022-11-24T13:24:34.764Z,14.85
2022-11-24T13:27:17.060Z,14.05
2022-11-24T13:29:49.062Z,16.02
2022-11-24T13:34:42.732Z,14.68
2022-11-24T13:37:32.135Z,14.77
2022-11-24T13:40:11.870Z,14.52
2022-11-24T13:43:02.743Z,14.50
2022-11-24T13:48:24.881Z,13.18
2022-11-24T13:50:52.155Z,14.48
2022-11-24T13:53:25.447Z,14.80
2022-11-24T13:56:00.687Z,14.32
2022-11-24T13:58:36.941Z,13.95
2022-11-24T14:01:15.890Z,15.15
2022-11-24T14:04:21.589Z,15.43
2022-11-24T14:06:44.174Z,14.32
2022-11-24T14:09:28.185Z,14.43
2022-11-24T14:11:59.768Z,14.00
2022-11-24T14:14:27.282Z,14.60
2022-11-24T14:17:31.385Z,15.07
2022-11-24T14:19:58.575Z,15.05
2022-11-24T14:22:32.206Z,14.18
2022-11-24T14:25:00.627Z,14.95
2022-11-24T14:27:37.470Z,14.15
2022-11-24T14:30:10.419Z,14.45
2022-11-24T14:32:40.136Z,15.15
2022-11-24T14:35:30.235Z,15.20
2022-11-24T14:37:57.445Z,14.77
2022-11-24T14:40:42.717Z,14.50
2022-11-24T14:43:31.696Z,14.98
2022-11-24T14:46:05.423Z,14.13
2022-11-24T14:48:37.643Z,14.95
2022-11-24T14:51:06.538Z,14.65
2022-11-24T14:53:34.439Z,15.15
2022-11-24T14:56:09.030Z,15.00
2022-11-24T14:58:41.856Z,15.20
2022-11-24T15:01:20.587Z,14.40
2022-11-24T15:05:00.756Z,14.60
2022-11-24T15:07:29.646Z,13.75
2022-11-24T15:10:02.384Z,13.50
2022-11-24T15:12:39.769Z,14.60
2022-11-24T15:15:15.644Z,13.20
2022-11-24T15:17:46.876Z,14.25
2022-11-24T15:20:24.811Z,14.20
2022-11-24T15:22:52.685Z,14.07
2022-11-24T15:25:24.918Z,15.80
2022-11-24T15:27:52.546Z,14.35
2022-11-24T15:30:19.388Z,13.85
2022-11-24T15:32:54.144Z,13.48
2022-11-24T15:35:22.969Z,13.35
2022-11-24T15:37:50.162Z,14.70
2022-11-24T15:40:17.867Z,14.02
2022-11-24T15:43:16.826Z,14.25
2022-11-24T15:46:03.853Z,14.20
2022-11-24T15:48:31.158Z,14.27
2022-11-24T15:50:59.565Z,14.15
2022-11-24T15:53:42.694Z,14.05
2022-11-24T15:59:03.524Z,15.63
2022-11-24T16:01:32.733Z,14.95
2022-11-24T16:04:00.095Z,13.73
2022-11-24T16:06:26.757Z,14.15
2022-11-24T16:08:54.467Z,14.20
2022-11-24T16:11:21.869Z,13.48
2022-11-24T16:13:52.943Z,13.80
2022-11-24T16:16:22.589Z,13.73
2022-11-24T16:18:49.345Z,14.32
2022-11-24T16:21:16.064Z,13.35
2022-11-24T16:23:42.803Z,14.95
2022-11-24T16:26:09.972Z,15.00
2022-11-24T16:28:36.818Z,15.75
2022-11-24T16:31:03.836Z,14.38
2022-11-24T16:33:30.805Z,15.20
2022-11-24T16:35:57.724Z,14.43
2022-11-24T16:38:24.664Z,14.55
2022-11-24T16:40:58.671Z,14.63
2022-11-24T16:43:25.361Z,14.25
2022-11-24T16:46:22.221Z,14.98
2022-11-24T16:48:51.251Z,14.65
2022-11-24T16:51:20.390Z,15.00
2022-11-24T16:53:47.663Z,14.82
2022-11-24T16:56:17.638Z,13.88
2022-11-24T16:58:45.095Z,14.77
2022-11-24T17:01:13.858Z,14.45
2022-11-24T17:03:41.392Z,14.45
2022-11-24T17:06:12.141Z,13.80
2022-11-24T17:08:40.309Z,14.93
2022-11-24T17:11:17.149Z,14.43
2022-11-24T17:13:45.683Z,13.82
2022-11-24T17:16:17.227Z,14.77
2022-11-24T17:18:45.715Z,14.40
2022-11-24T17:21:18.406Z,14.93
2022-11-24T17:23:45.349Z,15.05
2022-11-24T17:26:47.474Z,13.75
2022-11-24T17:29:16.800Z,15.18
2022-11-24T17:31:43.716Z,14.98
2022-11-24T17:34:12.078Z,14.88
2022-11-24T17:36:41.525Z,16.48
2022-11-24T17:39:09.495Z,14.80
2022-11-24T17:41:36.292Z,16.15
2022-11-24T17:44:03.164Z,16.60
2022-11-24T17:46:31.006Z,14.73
2022-11-24T17:48:58.008Z,16.23
2022-11-24T17:51:26.413Z,15.77
2022-11-24T17:53:54.584Z,15.38
2022-11-24T17:56:23.865Z,15.40
2022-11-24T17:58:56.137Z,15.38
2022-11-24T18:01:23.390Z,14.93
2022-11-24T18:03:53.480Z,16.15
2022-11-24T18:06:21.279Z,14.18
2022-11-24T18:08:48.432Z,14.48
2022-11-24T18:11:24.707Z,14.45
2022-11-24T18:14:00.648Z,15.55
2022-11-24T18:16:30.262Z,14.32
2022-11-24T18:19:08.400Z,15.27
2022-11-24T18:21:46.160Z,14.35
2022-11-24T18:24:13.792Z,14.55
2022-11-24T18:26:41.836Z,14.23
2022-11-24T18:29:09.470Z,15.27
2022-11-24T18:31:37.193Z,14.05
2022-11-24T18:34:05.672Z,14.57
2022-11-24T18:36:33.047Z,14.77
2022-11-24T18:39:07.846Z,14.90
2022-11-24T18:41:35.235Z,16.80
2022-11-24T18:44:03.022Z,16.35
2022-11-24T18:46:29.856Z,15.32
2022-11-24T18:48:57.581Z,16.35
2022-11-24T18:51:24.270Z,16.65
2022-11-24T18:53:58.095Z,15.55
2022-11-24T18:56:26.097Z,15.63
2022-11-24T18:58:54.414Z,16.48
2022-11-24T19:01:23.710Z,16.63
2022-11-24T19:03:58.933Z,16.23
2022-11-24T19:06:31.998Z,15.80
2022-11-24T19:09:11.055Z,15.25
2022-11-24T19:11:40.146Z,15.80
2022-11-24T19:14:08.798Z,15.50
2022-11-24T19:16:39.453Z,15.43
2022-11-24T19:19:07.453Z,15.77
2022-11-24T19:21:39.124Z,16.30
2022-11-24T19:24:07.533Z,15.68
2022-11-24T19:26:37.628Z,15.85
2022-11-24T19:29:05.779Z,16.10
2022-11-24T19:31:33.444Z,16.13
2022-11-24T19:34:00.829Z,16.00
2022-11-24T19:36:27.715Z,15.65
2022-11-24T19:38:56.425Z,15.02
2022-11-24T19:41:26.325Z,15.95
2022-11-24T19:43:53.709Z,16.83
2022-11-24T19:46:22.217Z,16.00
2022-11-24T19:48:51.219Z,16.38
2022-11-24T19:51:20.293Z,16.60
2022-11-24T19:53:47.432Z,15.57
2022-11-24T19:56:17.786Z,16.42
2022-11-24T19:58:44.973Z,15.75
2022-11-24T20:01:19.045Z,16.55
2022-11-24T20:03:49.951Z,17.08
2022-11-24T20:06:16.893Z,16.55
2022-11-24T20:08:43.751Z,16.30
2022-11-24T20:11:11.933Z,16.90
2022-11-24T20:13:40.477Z,17.15
2022-11-24T20:16:19.017Z,17.35
2022-11-24T20:18:47.643Z,17.13
2022-11-24T20:21:17.309Z,17.40
2022-11-24T20:23:45.518Z,17.83
2022-11-24T20:26:19.685Z,17.20
2022-11-24T20:28:47.038Z,17.35
2022-11-24T20:31:16.912Z,18.17
2022-11-24T20:33:44.972Z,17.58
2022-11-24T20:36:13.383Z,17.25
2022-11-24T20:38:41.086Z,18.27
2022-11-24T20:41:10.841Z,17.27
2022-11-24T20:43:38.300Z,17.58
2022-11-24T20:46:14.388Z,16.38
2022-11-24T20:48:41.367Z,15.27
2022-11-24T20:51:10.802Z,15.77
2022-11-24T20:53:38.806Z,16.40
2022-11-24T20:56:15.653Z,16.60
2022-11-24T20:58:43.500Z,17.17
2022-11-24T21:01:15.927Z,17.33
2022-11-24T21:03:43.821Z,16.05
2022-11-24T21:06:12.320Z,15.45
2022-11-24T21:08:41.324Z,14.68
2022-11-24T21:11:11.129Z,14.05
2022-11-24T21:13:40.238Z,12.50
2022-11-24T21:16:14.433Z,12.60
2022-11-24T21:18:41.628Z,12.38
2022-11-24T21:21:08.531Z,12.57
2022-11-24T21:23:35.303Z,12.45
2022-11-24T21:26:05.720Z,13.32
2022-11-24T21:28:33.913Z,14.35
2022-11-24T21:31:18.371Z,13.02
2022-11-24T21:33:47.547Z,12.57
2022-11-24T21:36:16.446Z,13.38
2022-11-24T21:38:43.745Z,13.75
2022-11-24T21:41:11.830Z,15.02
2022-11-24T21:43:38.675Z,15.57
2022-11-24T21:46:13.538Z,15.13
2022-11-24T21:48:41.457Z,14.02
2022-11-24T21:51:12.887Z,14.60
2022-11-24T21:53:39.711Z,14.25
2022-11-24T21:56:15.647Z,15.43
2022-11-24T21:58:52.735Z,14.23
2022-11-24T22:01:21.606Z,16.00
2022-11-24T22:03:48.560Z,15.52
2022-11-24T22:06:17.712Z,14.73
2022-11-24T22:08:44.939Z,14.63
2022-11-24T22:11:17.594Z,15.02
2022-11-24T22:13:47.733Z,14.95
2022-11-24T22:16:17.797Z,14.15
2022-11-24T22:18:45.521Z,15.60
2022-11-24T22:21:18.152Z,14.85
2022-11-24T22:23:45.204Z,14.27
2022-11-24T22:26:13.060Z,15.90
2022-11-24T22:28:40.430Z,15.27
2022-11-24T22:31:21.725Z,15.20
2022-11-24T22:33:49.340Z,14.32
2022-11-24T22:36:17.635Z,14.55
2022-11-24T22:38:44.879Z,15.07
2022-11-24T22:41:16.647Z,13.52
2022-11-24T22:43:44.616Z,13.18
2022-11-24T22:46:14.242Z,13.15
2022-11-24T22:48:41.749Z,13.70
2022-11-24T22:51:11.372Z,13.45
2022-11-24T22:53:38.562Z,14.18
2022-11-24T22:56:11.004Z,13.75
2022-11-24T22:58:39.293Z,13.18
2022-11-24T23:01:11.989Z,14.85
2022-11-24T23:03:39.242Z,14.18
2022-11-24T23:06:16.038Z,14.48
2022-11-24T23:08:43.023Z,14.15
2022-11-24T23:11:15.244Z,13.65
2022-11-24T23:13:43.535Z,14.60
2022-11-24T23:16:14.658Z,13.63
2022-11-24T23:18:42.276Z,13.45
2022-11-24T23:21:26.466Z,14.00
2022-11-24T23:23:53.891Z,13.93
2022-11-24T23:26:26.144Z,13.25
2022-11-24T23:28:53.325Z,14.05
2022-11-24T23:31:24.068Z,12.02
2022-11-24T23:33:51.239Z,14.73
2022-11-24T23:36:19.848Z,14.55
2022-11-24T23:38:47.294Z,13.80
2022-11-24T23:41:17.161Z,13.38
2022-11-24T23:43:44.169Z,14.82
2022-11-24T23:46:20.492Z,15.13
2022-11-24T23:48:47.928Z,13.38
2022-11-24T23:51:16.369Z,15.48
2022-11-24T23:53:44.179Z,14.73
2022-11-24T23:56:19.516Z,15.60
2022-11-24T23:58:46.413Z,14.50
